createdAt,value
2022-10-05T00:00:13.673Z,11.50
2022-10-05T00:02:41.402Z,11.60
2022-10-05T00:05:17.445Z,11.50
2022-10-05T00:07:46.562Z,11.50
2022-10-05T00:10:15.808Z,11.50
2022-10-05T00:12:45.086Z,11.50
2022-10-05T00:15:13.531Z,11.40
2022-10-05T00:17:42.167Z,11.50
2022-10-05T00:20:16.780Z,11.50
2022-10-05T00:22:45.863Z,11.40
2022-10-05T00:25:15.664Z,11.40
2022-10-05T00:27:43.580Z,11.30
2022-10-05T00:30:15.475Z,11.30
2022-10-05T00:32:43.459Z,11.30
2022-10-05T00:35:11.343Z,11.30
2022-10-05T00:37:39.135Z,11.30
2022-10-05T00:40:12.278Z,11.40
2022-10-05T00:42:42.891Z,11.50
2022-10-05T00:45:14.104Z,11.50
2022-10-05T00:47:46.728Z,11.50
2022-10-05T00:50:33.512Z,11.50
2022-10-05T00:53:06.595Z,11.40
2022-10-05T00:55:42.066Z,11.50
2022-10-05T00:58:17.753Z,11.40
2022-10-05T01:00:51.507Z,11.50
2022-10-05T01:03:21.739Z,11.40
2022-10-05T01:05:56.520Z,11.40
2022-10-05T01:08:27.848Z,11.40
2022-10-05T01:11:03.187Z,11.40
2022-10-05T01:13:33.760Z,11.40
2022-10-05T01:16:05.957Z,11.30
2022-10-05T01:18:39.002Z,11.20
2022-10-05T01:21:08.912Z,11.20
2022-10-05T01:23:54.931Z,11.10
2022-10-05T01:26:30.955Z,11.10
2022-10-05T01:29:03.501Z,11.10
2022-10-05T01:31:35.720Z,11.10
2022-10-05T01:34:11.295Z,11.20
2022-10-05T01:36:45.233Z,11.10
2022-10-05T01:39:17.512Z,11.20
2022-10-05T01:41:47.806Z,11.20
2022-10-05T01:44:18.584Z,11.20
2022-10-05T01:46:50.050Z,11.20
2022-10-05T01:49:33.188Z,11.20
2022-10-05T01:52:05.585Z,11.20
2022-10-05T01:54:37.929Z,11.20
2022-10-05T01:57:14.998Z,11.30
2022-10-05T01:59:54.158Z,11.20
2022-10-05T02:02:23.529Z,11.30
2022-10-05T02:05:07.481Z,11.20
2022-10-05T02:07:37.508Z,11.20
2022-10-05T02:10:06.948Z,11.20
2022-10-05T02:12:37.416Z,11.20
2022-10-05T02:15:10.558Z,11.20
2022-10-05T02:17:40.792Z,11.10
2022-10-05T02:20:11.376Z,11.10
2022-10-05T02:22:40.661Z,11.10
2022-10-05T02:25:10.908Z,11.10
2022-10-05T02:27:40.185Z,11.10
2022-10-05T02:30:14.215Z,11.10
2022-10-05T02:32:48.390Z,11.00
2022-10-05T02:35:17.866Z,11.00
2022-10-05T02:37:50.164Z,11.00
2022-10-05T02:40:24.431Z,11.00
2022-10-05T02:42:55.490Z,11.00
2022-10-05T02:45:28.824Z,10.80
2022-10-05T02:48:01.240Z,10.80
2022-10-05T02:50:32.556Z,10.80
2022-10-05T02:53:05.679Z,10.80
2022-10-05T02:55:37.502Z,10.70
2022-10-05T02:58:08.832Z,10.70
2022-10-05T03:00:40.386Z,10.70
2022-10-05T03:03:10.323Z,10.70
2022-10-05T03:05:39.778Z,10.70
2022-10-05T03:08:10.439Z,10.70
2022-10-05T03:10:40.719Z,10.70
2022-10-05T03:13:10.575Z,10.70
2022-10-05T03:16:00.966Z,10.60
2022-10-05T03:18:37.199Z,10.60
2022-10-05T03:21:10.334Z,10.60
2022-10-05T03:23:43.990Z,10.60
2022-10-05T03:26:19.608Z,10.60
2022-10-05T03:28:52.099Z,10.60
2022-10-05T03:31:24.327Z,10.60
2022-10-05T03:33:55.353Z,10.60
2022-10-05T03:36:28.208Z,10.60
2022-10-05T03:39:00.359Z,10.60
2022-10-05T03:41:32.651Z,10.70
2022-10-05T03:44:07.694Z,10.70
2022-10-05T03:46:45.589Z,10.80
2022-10-05T03:49:18.069Z,10.80
2022-10-05T03:51:47.838Z,10.80
2022-10-05T03:54:18.193Z,10.70
2022-10-05T03:56:48.549Z,10.70
2022-10-05T03:59:17.927Z,10.70
2022-10-05T04:01:50.481Z,10.70
2022-10-05T04:04:21.573Z,10.70
2022-10-05T04:06:50.475Z,10.80
2022-10-05T04:09:21.922Z,10.80
2022-10-05T04:11:51.702Z,10.80
2022-10-05T04:14:22.542Z,10.80
2022-10-05T04:16:55.393Z,10.80
2022-10-05T04:19:25.671Z,10.80
2022-10-05T04:21:54.315Z,10.80
2022-10-05T04:24:26.096Z,10.80
2022-10-05T04:26:55.125Z,10.80
2022-10-05T04:29:28.879Z,10.80
2022-10-05T04:32:03.482Z,10.80
2022-10-05T04:34:37.874Z,10.90
2022-10-05T04:37:08.454Z,10.90
2022-10-05T04:39:39.990Z,10.90
2022-10-05T04:42:11.448Z,10.90
2022-10-05T04:44:45.919Z,11.00
2022-10-05T04:47:27.767Z,11.00
2022-10-05T04:50:01.652Z,11.00
2022-10-05T04:52:36.165Z,11.00
2022-10-05T04:55:09.048Z,11.00
2022-10-05T04:57:41.214Z,10.90
2022-10-05T05:00:19.983Z,11.00
2022-10-05T05:02:58.799Z,10.90
2022-10-05T05:05:31.931Z,10.90
2022-10-05T05:08:07.863Z,10.80
2022-10-05T05:10:39.851Z,10.70
2022-10-05T05:13:13.614Z,10.60
2022-10-05T05:15:46.986Z,10.70
2022-10-05T05:18:29.563Z,10.70
2022-10-05T05:21:01.823Z,10.60
2022-10-05T05:23:34.098Z,10.70
2022-10-05T05:26:08.176Z,10.70
2022-10-05T05:28:40.826Z,10.70
2022-10-05T05:31:11.465Z,10.70
2022-10-05T05:33:45.675Z,10.80
2022-10-05T05:36:35.592Z,10.80
2022-10-05T05:39:12.268Z,10.80
2022-10-05T05:41:42.393Z,10.90
2022-10-05T05:44:16.861Z,10.90
2022-10-05T05:47:04.779Z,10.90
2022-10-05T05:49:38.802Z,10.90
2022-10-05T05:52:15.524Z,10.80
2022-10-05T05:54:44.893Z,10.90
2022-10-05T05:57:14.780Z,10.90
2022-10-05T05:59:48.318Z,11.00
2022-10-05T06:02:19.058Z,11.00
2022-10-05T06:04:48.838Z,11.10
2022-10-05T06:07:20.606Z,11.00
2022-10-05T06:09:49.701Z,11.00
2022-10-05T06:12:19.434Z,11.00
2022-10-05T06:14:48.561Z,11.00
2022-10-05T06:17:18.658Z,11.00
2022-10-05T06:19:46.921Z,11.10
2022-10-05T06:22:17.178Z,11.10
2022-10-05T06:24:54.476Z,11.00
2022-10-05T06:27:25.606Z,11.10
2022-10-05T06:30:14.689Z,11.10
2022-10-05T06:32:48.870Z,11.10
2022-10-05T06:35:20.678Z,11.20
2022-10-05T06:37:57.751Z,11.20
2022-10-05T06:40:31.860Z,11.20
2022-10-05T06:43:19.362Z,11.20
2022-10-05T06:45:55.536Z,11.20
2022-10-05T06:48:28.481Z,11.30
2022-10-05T06:50:59.124Z,11.30
2022-10-05T06:53:32.187Z,11.30
2022-10-05T06:56:05.747Z,11.40
2022-10-05T06:58:42.393Z,11.40
2022-10-05T07:01:15.262Z,11.50
2022-10-05T07:03:48.292Z,11.50
2022-10-05T07:06:17.380Z,11.60
2022-10-05T07:08:55.255Z,11.60
2022-10-05T07:11:31.464Z,11.70
2022-10-05T07:14:10.514Z,11.80
2022-10-05T07:16:40.200Z,11.80
2022-10-05T07:19:18.818Z,11.80
2022-10-05T07:21:53.218Z,11.80
2022-10-05T07:24:27.256Z,11.80
2022-10-05T07:27:02.942Z,11.70
2022-10-05T07:29:33.413Z,11.80
2022-10-05T07:32:08.354Z,11.80
2022-10-05T07:34:41.331Z,11.90
2022-10-05T07:37:28.239Z,12.00
2022-10-05T07:40:01.214Z,12.10
2022-10-05T07:42:51.494Z,12.10
2022-10-05T07:45:24.561Z,12.20
2022-10-05T07:47:54.103Z,12.30
2022-10-05T07:50:25.058Z,12.40
2022-10-05T07:52:56.215Z,12.40
2022-10-05T07:55:25.173Z,12.40
2022-10-05T07:58:00.323Z,12.70
2022-10-05T08:00:31.028Z,12.70
2022-10-05T08:03:00.509Z,12.70
2022-10-05T08:05:29.747Z,12.70
2022-10-05T08:08:01.407Z,12.70
2022-10-05T08:10:32.239Z,12.60
2022-10-05T08:13:06.194Z,12.60
2022-10-05T08:15:35.318Z,12.60
2022-10-05T08:18:06.094Z,12.60
2022-10-05T08:20:40.543Z,12.60
2022-10-05T08:23:13.008Z,12.60
2022-10-05T08:25:46.347Z,12.50
2022-10-05T08:28:16.590Z,12.40
2022-10-05T08:30:51.863Z,12.40
2022-10-05T08:33:20.963Z,12.40
2022-10-05T08:35:55.649Z,12.40
2022-10-05T08:38:29.014Z,12.40
2022-10-05T08:41:05.287Z,12.50
2022-10-05T08:43:48.350Z,12.60
2022-10-05T08:46:26.846Z,12.60
2022-10-05T08:49:29.723Z,12.60
2022-10-05T08:52:23.191Z,12.60
2022-10-05T08:55:03.969Z,12.70
2022-10-05T08:57:46.569Z,12.60
2022-10-05T09:00:17.489Z,12.60
2022-10-05T09:02:59.909Z,12.70
2022-10-05T09:05:42.532Z,12.80
2022-10-05T09:08:20.222Z,12.90
2022-10-05T09:10:59.276Z,13.00
2022-10-05T09:13:33.310Z,13.10
2022-10-05T09:16:13.671Z,13.20
2022-10-05T09:18:52.625Z,13.30
2022-10-05T09:21:29.749Z,13.40
2022-10-05T09:24:05.846Z,13.50
2022-10-05T09:26:51.277Z,13.70
2022-10-05T09:29:36.696Z,13.80
2022-10-05T09:32:18.424Z,14.00
2022-10-05T09:35:02.687Z,14.20
2022-10-05T09:37:46.029Z,14.40
2022-10-05T09:40:28.574Z,14.50
2022-10-05T09:43:04.327Z,14.70
2022-10-05T09:45:39.267Z,14.90
2022-10-05T09:48:32.240Z,15.10
2022-10-05T09:51:10.612Z,15.30
2022-10-05T09:53:47.750Z,15.40
2022-10-05T09:56:23.503Z,15.50
2022-10-05T09:59:07.481Z,15.60
2022-10-05T10:01:41.512Z,15.50
2022-10-05T10:04:30.413Z,15.40
2022-10-05T10:07:13.219Z,15.40
2022-10-05T10:09:44.684Z,15.50
2022-10-05T10:12:19.011Z,15.40
2022-10-05T10:15:15.603Z,15.50
2022-10-05T10:17:58.379Z,15.50
2022-10-05T10:20:39.604Z,15.70
2022-10-05T10:23:20.364Z,15.60
2022-10-05T10:26:16.151Z,15.40
2022-10-05T10:28:53.095Z,15.40
2022-10-05T10:31:40.751Z,15.50
2022-10-05T10:34:18.500Z,15.60
2022-10-05T10:36:58.539Z,15.90
2022-10-05T10:39:33.676Z,16.00
2022-10-05T10:42:15.704Z,16.30
2022-10-05T10:44:55.068Z,16.60
2022-10-05T10:47:38.078Z,16.70
2022-10-05T10:50:26.206Z,16.90
2022-10-05T10:53:02.704Z,16.90
2022-10-05T10:55:41.987Z,17.00
2022-10-05T10:58:28.267Z,17.10
2022-10-05T11:01:03.992Z,17.20
2022-10-05T11:03:51.086Z,17.10
2022-10-05T11:06:23.562Z,17.10
2022-10-05T11:08:58.802Z,17.20
2022-10-05T11:11:44.995Z,17.30
2022-10-05T11:14:26.471Z,17.50
2022-10-05T11:17:15.903Z,17.60
2022-10-05T11:20:03.183Z,17.80
2022-10-05T11:22:39.311Z,17.90
2022-10-05T11:25:20.618Z,18.00
2022-10-05T11:27:53.880Z,18.10
2022-10-05T11:30:30.875Z,18.30
2022-10-05T11:33:25.910Z,18.70
2022-10-05T11:36:05.516Z,19.40
2022-10-05T11:38:42.779Z,20.00
2022-10-05T11:41:28.753Z,20.40
2022-10-05T11:44:15.374Z,21.00
2022-10-05T11:46:49.091Z,21.60
2022-10-05T11:49:23.179Z,21.90
2022-10-05T11:51:55.949Z,22.30
2022-10-05T11:54:32.533Z,22.70
2022-10-05T11:57:08.768Z,22.60
2022-10-05T11:59:39.707Z,22.70
2022-10-05T12:02:27.165Z,22.10
2022-10-05T12:04:59.854Z,21.80
2022-10-05T12:07:32.306Z,21.60
2022-10-05T12:10:16.822Z,21.20
2022-10-05T12:13:01.504Z,20.90
2022-10-05T12:15:33.062Z,20.60
2022-10-05T12:18:08.161Z,20.20
2022-10-05T12:20:40.419Z,19.90
2022-10-05T12:23:12.323Z,19.90
2022-10-05T12:25:43.757Z,20.10
2022-10-05T12:28:13.310Z,20.40
2022-10-05T12:30:58.363Z,20.80
2022-10-05T12:33:29.639Z,21.20
2022-10-05T12:36:00.280Z,21.40
2022-10-05T12:38:29.598Z,21.20
2022-10-05T12:41:05.050Z,21.50
2022-10-05T12:43:36.367Z,21.90
2022-10-05T12:46:09.853Z,22.30
2022-10-05T12:48:56.093Z,22.60
2022-10-05T12:51:28.933Z,22.80
2022-10-05T12:53:58.946Z,22.70
2022-10-05T12:56:34.853Z,23.20
2022-10-05T12:59:07.279Z,23.30
2022-10-05T13:01:39.178Z,23.60
2022-10-05T13:04:15.084Z,23.70
2022-10-05T13:06:45.638Z,23.80
2022-10-05T13:09:15.697Z,24.20
2022-10-05T13:11:45.678Z,24.50
2022-10-05T13:14:19.040Z,24.40
2022-10-05T13:16:55.128Z,24.30
2022-10-05T13:19:31.638Z,24.30
2022-10-05T13:22:05.519Z,24.10
2022-10-05T13:24:37.413Z,24.00
2022-10-05T13:27:09.434Z,24.20
2022-10-05T13:29:41.148Z,24.10
2022-10-05T13:32:15.111Z,24.10
2022-10-05T13:34:46.467Z,24.10
2022-10-05T13:37:19.118Z,24.00
2022-10-05T13:39:53.882Z,23.70
2022-10-05T13:42:23.915Z,23.90
2022-10-05T13:44:54.440Z,24.20
2022-10-05T13:47:26.503Z,24.30
2022-10-05T13:49:58.097Z,24.70
2022-10-05T13:52:30.892Z,24.60
2022-10-05T13:55:01.040Z,24.30
2022-10-05T13:57:45.117Z,24.70
2022-10-05T14:00:18.144Z,24.40
2022-10-05T14:02:49.864Z,24.10
2022-10-05T14:05:20.447Z,24.40
2022-10-05T14:07:52.746Z,24.70
2022-10-05T14:10:33.815Z,24.80
2022-10-05T14:13:03.207Z,25.10
2022-10-05T14:15:32.188Z,24.70
2022-10-05T14:18:00.283Z,24.20
2022-10-05T14:20:31.031Z,23.60
2022-10-05T14:23:00.576Z,23.10
2022-10-05T14:25:29.055Z,22.60
2022-10-05T14:28:00.938Z,22.20
2022-10-05T14:30:29.323Z,22.00
2022-10-05T14:32:59.116Z,21.90
2022-10-05T14:35:29.074Z,21.90
2022-10-05T14:38:00.161Z,21.90
2022-10-05T14:40:29.895Z,22.00
2022-10-05T14:42:58.227Z,22.30
2022-10-05T14:45:29.074Z,22.50
2022-10-05T14:48:06.046Z,22.70
2022-10-05T14:50:33.792Z,23.20
2022-10-05T14:53:10.841Z,23.40
2022-10-05T14:55:50.788Z,23.30
2022-10-05T14:58:29.515Z,23.10
2022-10-05T15:01:01.044Z,23.00
2022-10-05T15:03:33.654Z,22.70
2022-10-05T15:06:03.475Z,22.50
2022-10-05T15:08:39.219Z,22.00
2022-10-05T15:11:08.320Z,21.70
2022-10-05T15:13:38.416Z,21.40
2022-10-05T15:16:13.480Z,21.20
2022-10-05T15:18:44.778Z,21.00
2022-10-05T15:21:30.174Z,20.90
2022-10-05T15:24:01.672Z,20.70
2022-10-05T15:26:33.383Z,20.70
2022-10-05T15:29:02.907Z,20.60
2022-10-05T15:31:37.653Z,20.50
2022-10-05T15:34:08.740Z,20.40
2022-10-05T15:36:41.375Z,20.50
2022-10-05T15:39:16.338Z,20.30
2022-10-05T15:41:55.233Z,20.20
2022-10-05T15:44:29.449Z,20.20
2022-10-05T15:46:59.615Z,20.10
2022-10-05T15:49:30.168Z,20.10
2022-10-05T15:52:01.568Z,20.10
2022-10-05T15:54:52.451Z,20.00
2022-10-05T15:57:22.376Z,20.00
2022-10-05T15:59:58.001Z,20.00
2022-10-05T16:02:29.808Z,20.00
2022-10-05T16:05:04.888Z,20.00
2022-10-05T16:07:55.601Z,20.10
2022-10-05T16:10:24.983Z,20.10
2022-10-05T16:12:58.701Z,20.10
2022-10-05T16:15:29.425Z,20.00
2022-10-05T16:18:21.324Z,20.00
2022-10-05T16:20:51.008Z,19.90
2022-10-05T16:23:25.133Z,19.80
2022-10-05T16:26:00.967Z,19.80
2022-10-05T16:28:33.665Z,19.70
2022-10-05T16:31:06.973Z,19.60
2022-10-05T16:33:46.577Z,19.40
2022-10-05T16:36:22.653Z,19.30
2022-10-05T16:38:54.906Z,19.20
2022-10-05T16:41:28.316Z,19.10
2022-10-05T16:44:04.490Z,19.10
2022-10-05T16:46:36.586Z,19.00
2022-10-05T16:49:10.346Z,18.90
2022-10-05T16:51:44.177Z,18.90
2022-10-05T16:54:18.318Z,18.80
2022-10-05T16:56:49.960Z,18.70
2022-10-05T16:59:41.912Z,18.50
2022-10-05T17:02:16.451Z,18.50
2022-10-05T17:04:47.870Z,18.40
2022-10-05T17:07:30.467Z,18.30
2022-10-05T17:10:06.758Z,18.20
2022-10-05T17:12:42.797Z,18.20
2022-10-05T17:15:15.879Z,18.20
2022-10-05T17:17:52.652Z,18.20
2022-10-05T17:20:30.180Z,18.10
2022-10-05T17:23:00.409Z,18.00
2022-10-05T17:25:35.103Z,18.00
2022-10-05T17:28:21.087Z,18.00
2022-10-05T17:30:50.378Z,18.00
2022-10-05T17:33:23.255Z,18.00
2022-10-05T17:35:52.768Z,18.00
2022-10-05T17:38:21.675Z,18.00
2022-10-05T17:41:14.668Z,17.90
2022-10-05T17:44:03.679Z,17.90
2022-10-05T17:46:38.555Z,17.90
2022-10-05T17:49:14.568Z,17.90
2022-10-05T17:52:16.138Z,17.90
2022-10-05T17:55:21.211Z,17.90
2022-10-05T17:57:48.914Z,17.90
2022-10-05T18:00:35.264Z,17.80
2022-10-05T18:03:29.122Z,17.90
2022-10-05T18:06:11.691Z,17.80
2022-10-05T18:08:40.210Z,17.70
2022-10-05T18:11:13.111Z,17.60
2022-10-05T18:13:45.396Z,17.70
2022-10-05T18:16:34.389Z,17.60
2022-10-05T18:19:03.015Z,17.60
2022-10-05T18:21:35.826Z,17.50
2022-10-05T18:24:07.146Z,17.50
2022-10-05T18:26:38.638Z,17.40
2022-10-05T18:29:14.958Z,17.40
2022-10-05T18:31:48.381Z,17.40
2022-10-05T18:34:22.906Z,17.30
2022-10-05T18:37:01.567Z,17.30
2022-10-05T18:39:38.171Z,17.20
2022-10-05T18:42:11.479Z,17.20
2022-10-05T18:44:40.555Z,17.10
2022-10-05T18:47:14.524Z,17.00
2022-10-05T18:49:50.345Z,17.00
2022-10-05T18:52:22.602Z,17.10
2022-10-05T18:54:55.620Z,17.10
2022-10-05T18:57:38.154Z,17.20
2022-10-05T19:00:11.650Z,17.40
2022-10-05T19:02:42.890Z,17.40
2022-10-05T19:05:45.782Z,17.30
2022-10-05T19:08:08.638Z,17.20
2022-10-05T19:10:39.442Z,17.10
2022-10-05T19:13:14.978Z,17.00
2022-10-05T19:15:47.635Z,17.00
2022-10-05T19:18:41.387Z,16.90
2022-10-05T19:21:16.943Z,16.80
2022-10-05T19:23:54.608Z,16.80
2022-10-05T19:26:30.158Z,16.70
2022-10-05T19:29:11.412Z,16.70
2022-10-05T19:31:41.085Z,16.70
2022-10-05T19:34:25.048Z,16.60
2022-10-05T19:36:58.288Z,16.60
2022-10-05T19:39:32.172Z,16.50
2022-10-05T19:42:07.100Z,16.50
2022-10-05T19:44:44.070Z,16.50
2022-10-05T19:47:18.419Z,16.40
2022-10-05T19:49:57.419Z,16.40
2022-10-05T19:52:28.305Z,16.40
2022-10-05T19:55:05.227Z,16.30
2022-10-05T19:57:32.946Z,16.30
2022-10-05T20:00:00.611Z,16.30
2022-10-05T20:02:28.476Z,16.30
2022-10-05T20:05:06.339Z,16.20
2022-10-05T20:07:34.301Z,16.20
2022-10-05T20:10:24.417Z,16.20
2022-10-05T20:12:52.979Z,16.10
2022-10-05T20:15:39.300Z,16.10
2022-10-05T20:18:54.461Z,16.10
2022-10-05T20:21:51.973Z,16.10
2022-10-05T20:24:22.285Z,16.10
2022-10-05T20:27:05.154Z,16.00
2022-10-05T20:29:35.436Z,16.00
2022-10-05T20:32:07.918Z,15.90
2022-10-05T20:34:36.370Z,15.90
2022-10-05T20:37:04.314Z,15.90
2022-10-05T20:39:33.578Z,15.90
2022-10-05T20:42:01.259Z,15.80
2022-10-05T20:44:28.948Z,15.70
2022-10-05T20:46:58.361Z,15.70
2022-10-05T20:49:27.032Z,15.70
2022-10-05T20:51:55.671Z,15.70
2022-10-05T20:54:23.457Z,15.60
2022-10-05T20:56:53.035Z,15.70
2022-10-05T20:59:20.710Z,15.70
2022-10-05T21:01:48.803Z,15.60
2022-10-05T21:04:17.147Z,15.70
2022-10-05T21:06:45.146Z,15.60
2022-10-05T21:09:14.680Z,15.60
2022-10-05T21:11:42.458Z,15.60
2022-10-05T21:14:12.098Z,15.60
2022-10-05T21:16:41.415Z,15.60
2022-10-05T21:19:09.748Z,15.60
2022-10-05T21:21:37.711Z,15.60
2022-10-05T21:24:06.151Z,15.60
2022-10-05T21:26:34.203Z,15.60
2022-10-05T21:29:02.294Z,15.60
2022-10-05T21:31:31.555Z,15.70
2022-10-05T21:33:59.274Z,15.60
2022-10-05T21:36:26.970Z,15.60
2022-10-05T21:38:55.595Z,15.60
2022-10-05T21:41:23.646Z,15.60
2022-10-05T21:43:51.316Z,15.50
2022-10-05T21:46:20.414Z,15.50
2022-10-05T21:48:50.181Z,15.50
2022-10-05T21:51:18.891Z,15.50
2022-10-05T21:53:49.240Z,15.40
2022-10-05T21:56:18.742Z,15.40
2022-10-05T21:58:47.343Z,15.40
2022-10-05T22:01:18.831Z,15.40
2022-10-05T22:03:50.743Z,15.30
2022-10-05T22:06:18.444Z,15.30
2022-10-05T22:08:46.102Z,15.20
2022-10-05T22:11:15.375Z,15.20
2022-10-05T22:13:44.825Z,15.20
2022-10-05T22:16:13.274Z,15.30
2022-10-05T22:18:41.188Z,15.20
2022-10-05T22:21:12.179Z,15.20
2022-10-05T22:23:40.213Z,15.20
2022-10-05T22:26:08.860Z,15.20
2022-10-05T22:28:37.513Z,15.30
2022-10-05T22:31:06.693Z,15.30
2022-10-05T22:33:34.582Z,15.20
2022-10-05T22:36:02.345Z,15.20
2022-10-05T22:38:31.639Z,15.20
2022-10-05T22:40:59.509Z,15.20
2022-10-05T22:43:27.833Z,15.20
2022-10-05T22:45:55.931Z,15.20
2022-10-05T22:48:23.689Z,15.10
2022-10-05T22:50:51.423Z,15.10
2022-10-05T22:53:19.079Z,15.10
2022-10-05T22:55:48.156Z,15.00
2022-10-05T22:58:15.846Z,15.00
2022-10-05T23:00:58.040Z,15.00
2022-10-05T23:03:26.585Z,15.00
2022-10-05T23:05:57.159Z,15.00
2022-10-05T23:08:25.602Z,15.00
2022-10-05T23:10:54.958Z,15.00
2022-10-05T23:13:23.333Z,14.90
2022-10-05T23:15:50.989Z,15.00
2022-10-05T23:18:19.015Z,15.00
2022-10-05T23:20:53.081Z,15.00
2022-10-05T23:23:21.043Z,15.00
2022-10-05T23:25:48.726Z,15.00
2022-10-05T23:28:17.805Z,15.00
2022-10-05T23:30:45.723Z,15.00
2022-10-05T23:33:13.453Z,15.00
2022-10-05T23:35:41.123Z,14.90
2022-10-05T23:38:08.849Z,14.90
2022-10-05T23:40:36.655Z,15.00
2022-10-05T23:43:05.227Z,15.00
2022-10-05T23:45:34.274Z,15.00
2022-10-05T23:48:01.970Z,14.90
2022-10-05T23:50:29.638Z,14.90
2022-10-05T23:52:57.337Z,14.90
2022-10-05T23:55:25.133Z,14.90
2022-10-05T23:57:52.884Z,14.90
